Chadwell St Mary, United Kingdom
Current Conditions -  °F | °C
As of 8:20 AM on Monday 24 Nov 2014 (Local Time) from EGLC Reporting Station
Clear Clear  
Wind Chill: 34°   Ceiling: Unl
Heat Index: 39°   Visibility: 6mi
Dew Point: 37°   Wind: 7mph
Humidity: 93%   Direction: 260°W
Pressure: 30.33"   Gusts: NA
Location:  51.48°N, 0.36°E
Report Text: EGLC 240820Z 26006KT CAVOK 04/03 Q1027
Loading
Personal Weather Stations






























Interactive Weather Map New forecast layout! Learn more

10-Day Weather Forecast

Advertisements
Track Severe Weather on mobile